createdAt,value
2018-07-03T00:01:03.038Z,99722.00
2018-07-03T00:03:32.968Z,99727.00
2018-07-03T00:06:02.880Z,99724.00
2018-07-03T00:08:32.807Z,99718.00
2018-07-03T00:11:02.862Z,99723.00
2018-07-03T00:13:32.727Z,99726.00
2018-07-03T00:16:02.655Z,99722.00
2018-07-03T00:18:32.579Z,99721.00
2018-07-03T00:21:02.521Z,99723.00
2018-07-03T00:23:32.447Z,99729.00
2018-07-03T00:26:02.366Z,99723.00
2018-07-03T00:28:32.287Z,99719.00
2018-07-03T00:31:02.223Z,99716.00
2018-07-03T00:33:32.315Z,99718.00
2018-07-03T00:36:02.268Z,99714.00
2018-07-03T00:38:32.260Z,99720.00
2018-07-03T00:41:02.055Z,99718.00
2018-07-03T00:43:31.916Z,99713.00
2018-07-03T00:46:01.872Z,99714.00
2018-07-03T00:48:31.835Z,99716.00
2018-07-03T00:51:01.813Z,99720.00
2018-07-03T00:53:31.862Z,99721.00
2018-07-03T00:56:01.813Z,99715.00
2018-07-03T00:58:31.794Z,99716.00
2018-07-03T01:01:01.803Z,99727.00
2018-07-03T01:03:31.764Z,99721.00
2018-07-03T01:06:01.770Z,99716.00
2018-07-03T01:08:31.699Z,99720.00
2018-07-03T01:11:01.688Z,99721.00
2018-07-03T01:13:31.627Z,99714.00
2018-07-03T01:16:01.683Z,99712.00
2018-07-03T01:18:31.663Z,99714.00
2018-07-03T01:21:01.615Z,99721.00
2018-07-03T01:23:31.559Z,99710.00
2018-07-03T01:26:01.516Z,99712.00
2018-07-03T01:28:31.456Z,99716.00
2018-07-03T01:31:01.415Z,99713.00
2018-07-03T01:33:31.398Z,99714.00
2018-07-03T01:36:01.401Z,99718.00
2018-07-03T01:38:31.347Z,99727.00
2018-07-03T01:41:01.347Z,99723.00
2018-07-03T01:43:31.294Z,99728.00
2018-07-03T01:46:01.267Z,99725.00
2018-07-03T01:48:31.525Z,99727.00
2018-07-03T01:51:01.483Z,99723.00
2018-07-03T01:53:31.514Z,99721.00
2018-07-03T01:56:01.485Z,99723.00
2018-07-03T01:58:31.428Z,99723.00
2018-07-03T02:01:01.388Z,99718.00
2018-07-03T02:03:31.331Z,99714.00
2018-07-03T02:06:01.295Z,99715.00
2018-07-03T02:08:31.263Z,99716.00
2018-07-03T02:11:01.260Z,99712.00
2018-07-03T02:13:30.958Z,99718.00
2018-07-03T02:16:00.797Z,99717.00
2018-07-03T02:18:30.764Z,99720.00
2018-07-03T02:21:00.707Z,99714.00
2018-07-03T02:23:30.834Z,99714.00
2018-07-03T02:26:00.791Z,99719.00
2018-07-03T02:28:30.719Z,99719.00
2018-07-03T02:31:00.676Z,99714.00
2018-07-03T02:33:30.618Z,99714.00
2018-07-03T02:36:00.573Z,99716.00
2018-07-03T02:38:30.507Z,99714.00
2018-07-03T02:41:00.514Z,99714.00
2018-07-03T02:43:30.459Z,99716.00
2018-07-03T02:46:00.424Z,99715.00
2018-07-03T02:48:30.368Z,99715.00
2018-07-03T02:51:00.325Z,99716.00
2018-07-03T02:53:30.264Z,99721.00
2018-07-03T02:56:00.208Z,99723.00
2018-07-03T02:58:30.188Z,99721.00
2018-07-03T03:01:00.150Z,99723.00
2018-07-03T03:03:30.220Z,99718.00
2018-07-03T03:06:00.202Z,99725.00
2018-07-03T03:08:30.039Z,99727.00
2018-07-03T03:10:59.866Z,99726.00
2018-07-03T03:13:29.799Z,99729.00
2018-07-03T03:15:59.756Z,99729.00
2018-07-03T03:18:29.702Z,99729.00
2018-07-03T03:20:59.658Z,99732.00
2018-07-03T03:23:29.669Z,99727.00
2018-07-03T03:25:59.611Z,99731.00
2018-07-03T03:28:29.642Z,99729.00
2018-07-03T03:30:59.596Z,99734.00
2018-07-03T03:33:29.540Z,99731.00
2018-07-03T03:35:59.503Z,99735.00
2018-07-03T03:38:29.459Z,99740.00
2018-07-03T03:40:59.396Z,99743.00
2018-07-03T03:43:29.356Z,99747.00
2018-07-03T03:45:59.304Z,99751.00
2018-07-03T03:48:29.441Z,99759.00
2018-07-03T03:50:59.565Z,99760.00
2018-07-03T03:53:29.531Z,99764.00
2018-07-03T03:55:59.494Z,99769.00
2018-07-03T03:58:29.667Z,99774.00
2018-07-03T04:00:59.640Z,99768.00
2018-07-03T04:03:29.569Z,99772.00
2018-07-03T04:05:59.511Z,99782.00
2018-07-03T04:08:29.515Z,99788.00
2018-07-03T04:10:59.460Z,99790.00
2018-07-03T04:13:29.391Z,99796.00
2018-07-03T04:15:59.356Z,99797.00
2018-07-03T04:18:32.839Z,99798.00
2018-07-03T04:21:06.819Z,99802.00
2018-07-03T04:23:37.872Z,99803.00
2018-07-03T04:26:07.934Z,99808.00
2018-07-03T04:28:37.883Z,99809.00
2018-07-03T04:31:07.840Z,99809.00
2018-07-03T04:33:37.778Z,99814.00
2018-07-03T04:36:07.751Z,99818.00
2018-07-03T04:38:37.695Z,99819.00
2018-07-03T04:41:07.667Z,99822.00
2018-07-03T04:43:37.611Z,99820.00
2018-07-03T04:46:07.551Z,99824.00
2018-07-03T04:48:37.491Z,99820.00
2018-07-03T04:51:07.568Z,99820.00
2018-07-03T04:53:37.511Z,99810.00
2018-07-03T04:56:07.447Z,99806.00
2018-07-03T04:58:37.395Z,99801.00
2018-07-03T05:01:07.792Z,99795.00
2018-07-03T05:03:37.751Z,99799.00
2018-07-03T05:06:07.691Z,99798.00
2018-07-03T05:08:37.639Z,99795.00
2018-07-03T05:11:07.579Z,99792.00
2018-07-03T05:13:37.373Z,99795.00
2018-07-03T05:16:07.227Z,99789.00
2018-07-03T05:18:37.231Z,99789.00
2018-07-03T05:21:07.235Z,99792.00
2018-07-03T05:23:37.223Z,99799.00
2018-07-03T05:26:07.255Z,99799.00
2018-07-03T05:28:36.962Z,99801.00
2018-07-03T05:31:06.947Z,99798.00
2018-07-03T05:33:36.931Z,99802.00
2018-07-03T05:36:06.890Z,99799.00
2018-07-03T05:38:36.855Z,99804.00
2018-07-03T05:41:07.224Z,99812.00
2018-07-03T05:43:37.176Z,99809.00
2018-07-03T05:46:07.184Z,99811.00
2018-07-03T05:48:36.987Z,99823.00
2018-07-03T05:51:06.803Z,99829.00
2018-07-03T05:53:36.847Z,99833.00
2018-07-03T05:56:06.796Z,99824.00
2018-07-03T05:58:36.747Z,99821.00
2018-07-03T06:01:06.714Z,99822.00
2018-07-03T06:03:36.672Z,99834.00
2018-07-03T06:06:06.631Z,99838.00
2018-07-03T06:08:36.575Z,99839.00
2018-07-03T06:11:06.565Z,99838.00
2018-07-03T06:13:36.516Z,99841.00
2018-07-03T06:16:06.455Z,99848.00
2018-07-03T06:18:36.407Z,99844.00
2018-07-03T06:21:06.549Z,99842.00
2018-07-03T06:23:36.494Z,99839.00
2018-07-03T06:26:06.444Z,99839.00
2018-07-03T06:28:36.402Z,99833.00
2018-07-03T06:31:06.647Z,99833.00
2018-07-03T06:33:36.633Z,99838.00
2018-07-03T06:36:06.764Z,99835.00
2018-07-03T06:38:36.715Z,99836.00
2018-07-03T06:41:06.751Z,99837.00
2018-07-03T06:43:36.735Z,99840.00
2018-07-03T06:46:06.856Z,99831.00
2018-07-03T06:48:36.804Z,99836.00
2018-07-03T06:51:06.756Z,99832.00
2018-07-03T06:53:36.706Z,99835.00
2018-07-03T06:56:06.760Z,99835.00
2018-07-03T06:58:36.740Z,99828.00
2018-07-03T07:01:06.758Z,99824.00
2018-07-03T07:03:36.730Z,99820.00
2018-07-03T07:06:06.680Z,99821.00
2018-07-03T07:08:36.685Z,99822.00
2018-07-03T07:11:06.595Z,99817.00
2018-07-03T07:13:36.552Z,99802.00
2018-07-03T07:16:06.495Z,99802.00
2018-07-03T07:18:36.551Z,99810.00
2018-07-03T07:21:06.515Z,99801.00
2018-07-03T07:23:36.473Z,99802.00
2018-07-03T07:26:06.423Z,99804.00
2018-07-03T07:28:36.423Z,99801.00
2018-07-03T07:31:06.566Z,99803.00
2018-07-03T07:33:36.540Z,99805.00
2018-07-03T07:36:06.523Z,99801.00
2018-07-03T07:38:36.483Z,99805.00
2018-07-03T07:41:06.624Z,99802.00
2018-07-03T07:43:36.571Z,99801.00
2018-07-03T07:46:06.535Z,99801.00
2018-07-03T07:48:36.517Z,99801.00
2018-07-03T07:51:06.592Z,99803.00
2018-07-03T07:53:36.539Z,99803.00
2018-07-03T07:56:06.513Z,99802.00
2018-07-03T07:58:36.444Z,99800.00
2018-07-03T08:01:06.520Z,99804.00
2018-07-03T08:03:36.480Z,99801.00
2018-07-03T08:06:06.493Z,99799.00
2018-07-03T08:08:36.486Z,99794.00
2018-07-03T08:11:06.455Z,99801.00
2018-07-03T08:13:36.419Z,99805.00
2018-07-03T08:16:06.511Z,99803.00
2018-07-03T08:18:36.475Z,99802.00
2018-07-03T08:21:06.427Z,99802.00
2018-07-03T08:23:36.391Z,99804.00
2018-07-03T08:26:06.879Z,99804.00
2018-07-03T08:28:36.892Z,99807.00
2018-07-03T08:31:06.855Z,99803.00
2018-07-03T08:33:36.874Z,99805.00
2018-07-03T08:36:06.842Z,99811.00
2018-07-03T08:38:36.980Z,99814.00
2018-07-03T08:41:07.311Z,99821.00
2018-07-03T08:43:37.250Z,99820.00
2018-07-03T08:46:07.226Z,99824.00
2018-07-03T08:48:37.140Z,99817.00
2018-07-03T08:51:07.114Z,99815.00
2018-07-03T08:53:37.075Z,99813.00
2018-07-03T08:56:07.023Z,99815.00
2018-07-03T08:58:36.963Z,99819.00
2018-07-03T09:01:07.171Z,99818.00
2018-07-03T09:03:37.123Z,99815.00
2018-07-03T09:06:07.267Z,99814.00
2018-07-03T09:08:37.220Z,99815.00
2018-07-03T09:11:07.529Z,99812.00
2018-07-03T09:13:37.479Z,99812.00
2018-07-03T09:16:07.671Z,99808.00
2018-07-03T09:18:37.627Z,99799.00
2018-07-03T09:21:07.631Z,99807.00
2018-07-03T09:23:41.020Z,99805.00
2018-07-03T09:26:10.791Z,99803.00
2018-07-03T09:28:41.089Z,99801.00
2018-07-03T09:31:11.051Z,99796.00
2018-07-03T09:33:41.003Z,99791.00
2018-07-03T09:36:10.972Z,99793.00
2018-07-03T09:38:40.986Z,99794.00
2018-07-03T09:41:10.963Z,99794.00
2018-07-03T09:43:40.939Z,99791.00
2018-07-03T09:46:10.905Z,99784.00
2018-07-03T09:48:40.859Z,99789.00
2018-07-03T09:51:10.831Z,99789.00
2018-07-03T09:53:40.891Z,99788.00
2018-07-03T09:56:10.868Z,99791.00
2018-07-03T09:58:40.837Z,99790.00
2018-07-03T10:01:16.068Z,99789.00
2018-07-03T10:03:46.351Z,99791.00
2018-07-03T10:06:16.434Z,99797.00
2018-07-03T10:08:46.387Z,99797.00
2018-07-03T10:11:16.339Z,99789.00
2018-07-03T10:13:46.429Z,99792.00
2018-07-03T10:16:16.371Z,99788.00
2018-07-03T10:18:46.371Z,99795.00
2018-07-03T10:21:16.110Z,99791.00
2018-07-03T10:23:46.024Z,99791.00
2018-07-03T10:26:16.012Z,99799.00
2018-07-03T10:28:45.973Z,99797.00
2018-07-03T10:31:16.051Z,99795.00
2018-07-03T10:33:46.164Z,99794.00
2018-07-03T10:36:16.093Z,99792.00
2018-07-03T10:38:46.084Z,99791.00
2018-07-03T10:41:16.100Z,99795.00
2018-07-03T10:43:46.226Z,99791.00
2018-07-03T10:46:16.151Z,99786.00
2018-07-03T10:48:46.129Z,99786.00
2018-07-03T10:51:16.072Z,99779.00
2018-07-03T10:53:46.109Z,99780.00
2018-07-03T10:56:16.053Z,99779.00
2018-07-03T10:58:46.035Z,99784.00
2018-07-03T11:01:16.200Z,99784.00
2018-07-03T11:03:46.171Z,99778.00
2018-07-03T11:06:16.219Z,99773.00
2018-07-03T11:08:46.176Z,99777.00
2018-07-03T11:11:16.142Z,99773.00
2018-07-03T11:13:46.240Z,99771.00
2018-07-03T11:16:16.151Z,99772.00
2018-07-03T11:18:46.303Z,99765.00
2018-07-03T11:21:16.251Z,99761.00
2018-07-03T11:23:46.227Z,99765.00
2018-07-03T11:26:16.187Z,99765.00
2018-07-03T11:28:46.175Z,99758.00
2018-07-03T11:31:16.123Z,99763.00
2018-07-03T11:33:46.170Z,99758.00
2018-07-03T11:36:16.157Z,99751.00
2018-07-03T11:38:46.241Z,99750.00
2018-07-03T11:41:16.196Z,99754.00
2018-07-03T11:43:46.177Z,99751.00
2018-07-03T11:46:16.415Z,99750.00
2018-07-03T11:48:46.282Z,99747.00
2018-07-03T11:51:15.867Z,99750.00
2018-07-03T11:53:45.693Z,99747.00
2018-07-03T11:56:15.646Z,99745.00
2018-07-03T11:58:45.612Z,99748.00
2018-07-03T12:01:15.563Z,99743.00
2018-07-03T12:03:45.580Z,99749.00
2018-07-03T12:06:15.559Z,99743.00
2018-07-03T12:08:45.547Z,99735.00
2018-07-03T12:11:15.532Z,99728.00
2018-07-03T12:13:45.478Z,99727.00
2018-07-03T12:16:15.436Z,99722.00
2018-07-03T12:18:50.743Z,99727.00
2018-07-03T12:21:20.829Z,99730.00
2018-07-03T12:23:51.392Z,99727.00
2018-07-03T12:26:21.170Z,99725.00
2018-07-03T12:28:51.140Z,99725.00
2018-07-03T12:31:21.477Z,99720.00
2018-07-03T12:33:51.887Z,99717.00
2018-07-03T12:36:21.875Z,99713.00
2018-07-03T12:38:51.819Z,99718.00
2018-07-03T12:41:21.883Z,99714.00
2018-07-03T12:43:52.339Z,99708.00
2018-07-03T12:46:22.303Z,99710.00
2018-07-03T12:48:52.267Z,99700.00
2018-07-03T12:51:22.235Z,99703.00
2018-07-03T12:53:52.332Z,99700.00
2018-07-03T12:56:22.095Z,99695.00
2018-07-03T12:58:52.670Z,99698.00
2018-07-03T13:01:22.748Z,99687.00
2018-07-03T13:03:52.764Z,99689.00
2018-07-03T13:06:22.744Z,99682.00
2018-07-03T13:08:52.711Z,99675.00
2018-07-03T13:11:22.661Z,99676.00
2018-07-03T13:13:53.023Z,99679.00
2018-07-03T13:16:22.975Z,99678.00
2018-07-03T13:18:52.952Z,99673.00
2018-07-03T13:21:23.003Z,99673.00
2018-07-03T13:23:53.049Z,99677.00
2018-07-03T13:26:23.006Z,99677.00
2018-07-03T13:28:52.977Z,99678.00
2018-07-03T13:31:22.940Z,99675.00
2018-07-03T13:33:53.275Z,99678.00
2018-07-03T13:36:23.324Z,99670.00
2018-07-03T13:38:53.235Z,99670.00
2018-07-03T13:41:23.202Z,99671.00
2018-07-03T13:43:53.416Z,99661.00
2018-07-03T13:46:23.359Z,99664.00
2018-07-03T13:48:53.382Z,99660.00
2018-07-03T13:51:23.095Z,99661.00
2018-07-03T13:53:53.123Z,99661.00
2018-07-03T13:56:23.077Z,99656.00
2018-07-03T13:58:53.456Z,99660.00
2018-07-03T14:01:23.455Z,99659.00
2018-07-03T14:03:53.740Z,99660.00
2018-07-03T14:06:23.693Z,99661.00
2018-07-03T14:08:53.427Z,99652.00
2018-07-03T14:11:23.248Z,99650.00
2018-07-03T14:13:54.075Z,99654.00
2018-07-03T14:16:24.044Z,99654.00
2018-07-03T14:18:54.031Z,99655.00
2018-07-03T14:21:23.981Z,99653.00
2018-07-03T14:23:54.111Z,99656.00
2018-07-03T14:26:24.055Z,99660.00
2018-07-03T14:28:54.059Z,99656.00
2018-07-03T14:31:24.167Z,99655.00
2018-07-03T14:33:54.311Z,99651.00
2018-07-03T14:36:24.356Z,99650.00
2018-07-03T14:38:54.243Z,99652.00
2018-07-03T14:41:24.215Z,99660.00
2018-07-03T14:43:54.455Z,99652.00
2018-07-03T14:46:24.445Z,99650.00
2018-07-03T14:48:54.397Z,99651.00
2018-07-03T14:51:24.563Z,99654.00
2018-07-03T14:53:54.675Z,99652.00
2018-07-03T14:56:24.684Z,99648.00
2018-07-03T14:58:54.655Z,99654.00
2018-07-03T15:01:24.631Z,99650.00
2018-07-03T15:03:54.695Z,99647.00
2018-07-03T15:06:24.699Z,99640.00
2018-07-03T15:08:54.688Z,99642.00
2018-07-03T15:11:24.730Z,99642.00
2018-07-03T15:13:55.135Z,99640.00
2018-07-03T15:16:25.135Z,99638.00
2018-07-03T15:19:00.300Z,99631.00
2018-07-03T15:21:30.269Z,99631.00
2018-07-03T15:24:00.273Z,99629.00
2018-07-03T15:26:30.264Z,99637.00
2018-07-03T15:29:00.235Z,99635.00
2018-07-03T15:31:30.207Z,99636.00
2018-07-03T15:34:00.172Z,99632.00
2018-07-03T15:36:30.131Z,99631.00
2018-07-03T15:39:00.093Z,99631.00
2018-07-03T15:41:30.075Z,99626.00
2018-07-03T15:44:17.342Z,99621.00
2018-07-03T15:46:47.343Z,99616.00
2018-07-03T15:49:17.539Z,99616.00
2018-07-03T15:51:47.855Z,99622.00
2018-07-03T15:54:17.819Z,99621.00
2018-07-03T15:56:47.779Z,99626.00
2018-07-03T15:59:17.771Z,99623.00
2018-07-03T16:01:47.803Z,99623.00
2018-07-03T16:06:31.435Z,99622.00
2018-07-03T16:09:08.002Z,99618.00
2018-07-03T16:11:39.160Z,99612.00
2018-07-03T16:14:10.551Z,99615.00
2018-07-03T16:16:41.036Z,99617.00
2018-07-03T16:19:16.255Z,99612.00
2018-07-03T16:21:46.490Z,99611.00
2018-07-03T16:24:16.443Z,99608.00
2018-07-03T16:26:46.403Z,99611.00
2018-07-03T16:29:16.362Z,99608.00
2018-07-03T16:31:46.312Z,99607.00
2018-07-03T16:34:16.259Z,99598.00
2018-07-03T16:36:46.210Z,99599.00
2018-07-03T16:39:16.169Z,99598.00
2018-07-03T16:41:46.147Z,99592.00
2018-07-03T16:44:16.106Z,99592.00
2018-07-03T16:46:46.064Z,99591.00
2018-07-03T16:49:16.024Z,99585.00
2018-07-03T16:51:45.972Z,99592.00
2018-07-03T16:54:15.946Z,99594.00
2018-07-03T16:56:46.081Z,99591.00
2018-07-03T16:59:16.031Z,99590.00
2018-07-03T17:01:46.155Z,99590.00
2018-07-03T17:04:16.107Z,99588.00
2018-07-03T17:06:46.168Z,99592.00
2018-07-03T17:09:16.111Z,99591.00
2018-07-03T17:11:46.176Z,99590.00
2018-07-03T17:14:16.155Z,99584.00
2018-07-03T17:16:46.652Z,99590.00
2018-07-03T17:19:22.036Z,99583.00
2018-07-03T17:21:52.013Z,99584.00
2018-07-03T17:24:22.011Z,99588.00
2018-07-03T17:26:51.967Z,99587.00
2018-07-03T17:29:21.943Z,99590.00
2018-07-03T17:31:51.943Z,99593.00
2018-07-03T17:34:22.036Z,99585.00
2018-07-03T17:36:52.009Z,99596.00
2018-07-03T17:39:21.983Z,99601.00
2018-07-03T17:42:09.213Z,99600.00
2018-07-03T17:44:51.879Z,99605.00
2018-07-03T17:47:21.865Z,99608.00
2018-07-03T17:49:51.819Z,99614.00
2018-07-03T17:52:21.798Z,99613.00
2018-07-03T17:54:51.754Z,99621.00
2018-07-03T17:57:21.720Z,99625.00
2018-07-03T17:59:51.670Z,99624.00
2018-07-03T18:02:21.652Z,99620.00
2018-07-03T18:04:51.782Z,99628.00
2018-07-03T18:07:21.755Z,99630.00
2018-07-03T18:09:51.700Z,99634.00
2018-07-03T18:12:21.679Z,99633.00
2018-07-03T18:14:51.464Z,99631.00
2018-07-03T18:17:21.312Z,99634.00
2018-07-03T18:19:51.371Z,99636.00
2018-07-03T18:22:21.353Z,99637.00
2018-07-03T18:24:51.351Z,99636.00
2018-07-03T18:27:21.377Z,99646.00
2018-07-03T18:29:51.318Z,99643.00
2018-07-03T18:32:21.288Z,99644.00
2018-07-03T18:34:51.344Z,99646.00
2018-07-03T18:37:21.311Z,99648.00
2018-07-03T18:39:51.447Z,99649.00
2018-07-03T18:42:21.211Z,99647.00
2018-07-03T18:44:51.074Z,99645.00
2018-07-03T18:47:21.054Z,99650.00
2018-07-03T18:49:50.991Z,99651.00
2018-07-03T18:52:20.963Z,99646.00
2018-07-03T18:54:50.930Z,99646.00
2018-07-03T18:57:20.985Z,99650.00
2018-07-03T18:59:50.943Z,99649.00
2018-07-03T19:02:20.920Z,99653.00
2018-07-03T19:04:50.871Z,99649.00
2018-07-03T19:07:20.880Z,99648.00
2018-07-03T19:09:50.579Z,99652.00
2018-07-03T19:12:20.480Z,99654.00
2018-07-03T19:14:50.415Z,99664.00
2018-07-03T19:17:20.265Z,99659.00
2018-07-03T19:19:50.089Z,99661.00
2018-07-03T19:22:20.044Z,99661.00
2018-07-03T19:24:49.995Z,99668.00
2018-07-03T19:27:19.971Z,99667.00
2018-07-03T19:29:50.013Z,99668.00
2018-07-03T19:32:19.979Z,99671.00
2018-07-03T19:34:49.924Z,99669.00
2018-07-03T19:37:19.908Z,99675.00
2018-07-03T19:39:49.944Z,99680.00
2018-07-03T19:42:19.843Z,99683.00
2018-07-03T19:44:49.775Z,99680.00
2018-07-03T19:47:19.855Z,99685.00
2018-07-03T19:49:49.794Z,99687.00
2018-07-03T19:52:19.743Z,99685.00
2018-07-03T19:54:49.698Z,99683.00
2018-07-03T19:57:19.680Z,99683.00
2018-07-03T19:59:49.651Z,99683.00
2018-07-03T20:02:19.611Z,99685.00
2018-07-03T20:04:50.347Z,99685.00
2018-07-03T20:07:20.304Z,99692.00
2018-07-03T20:09:50.251Z,99696.00
2018-07-03T20:12:20.288Z,99699.00
2018-07-03T20:14:50.335Z,99692.00
2018-07-03T20:17:20.202Z,99698.00
2018-07-03T20:19:50.087Z,99692.00
2018-07-03T20:22:20.060Z,99692.00
2018-07-03T20:24:50.084Z,99689.00
2018-07-03T20:27:19.968Z,99688.00
2018-07-03T20:29:49.964Z,99689.00
2018-07-03T20:32:19.932Z,99685.00
2018-07-03T20:34:49.907Z,99684.00
2018-07-03T20:37:19.868Z,99687.00
2018-07-03T20:39:49.828Z,99681.00
2018-07-03T20:42:19.833Z,99679.00
2018-07-03T20:44:49.751Z,99677.00
2018-07-03T20:47:19.703Z,99663.00
2018-07-03T20:49:49.686Z,99669.00
2018-07-03T20:52:19.627Z,99672.00
2018-07-03T20:54:49.597Z,99678.00
2018-07-03T20:57:19.334Z,99674.00
2018-07-03T20:59:49.181Z,99670.00
2018-07-03T21:02:19.086Z,99671.00
2018-07-03T21:04:49.063Z,99664.00
2018-07-03T21:07:19.102Z,99668.00
2018-07-03T21:09:49.195Z,99665.00
2018-07-03T21:12:19.233Z,99666.00
2018-07-03T21:14:49.220Z,99667.00
2018-07-03T21:17:19.180Z,99669.00
2018-07-03T21:19:49.152Z,99667.00
2018-07-03T21:22:19.100Z,99669.00
2018-07-03T21:24:49.063Z,99667.00
2018-07-03T21:27:19.011Z,99668.00
2018-07-03T21:29:48.963Z,99669.00
2018-07-03T21:32:19.010Z,99666.00
2018-07-03T21:34:48.986Z,99664.00
2018-07-03T21:37:18.940Z,99666.00
2018-07-03T21:39:49.049Z,99663.00
2018-07-03T21:42:18.998Z,99666.00
2018-07-03T21:44:48.960Z,99665.00
2018-07-03T21:47:18.666Z,99662.00
2018-07-03T21:49:48.604Z,99666.00
2018-07-03T21:52:18.570Z,99671.00
2018-07-03T21:54:48.545Z,99667.00
2018-07-03T21:57:18.492Z,99670.00
2018-07-03T21:59:48.472Z,99673.00
2018-07-03T22:02:18.428Z,99676.00
2018-07-03T22:04:48.148Z,99677.00
2018-07-03T22:07:18.020Z,99676.00
2018-07-03T22:09:47.982Z,99671.00
2018-07-03T22:12:17.953Z,99674.00
2018-07-03T22:14:47.917Z,99674.00
2018-07-03T22:17:17.882Z,99679.00
2018-07-03T22:19:47.838Z,99681.00
2018-07-03T22:22:17.779Z,99680.00
2018-07-03T22:24:47.744Z,99682.00
2018-07-03T22:27:17.749Z,99686.00
2018-07-03T22:29:47.661Z,99689.00
2018-07-03T22:32:17.824Z,99695.00
2018-07-03T22:34:47.816Z,99697.00
2018-07-03T22:37:17.766Z,99703.00
2018-07-03T22:39:47.830Z,99707.00
2018-07-03T22:42:17.761Z,99708.00
2018-07-03T22:44:47.733Z,99708.00
2018-07-03T22:47:17.686Z,99717.00
2018-07-03T22:49:47.645Z,99715.00
2018-07-03T22:52:17.689Z,99718.00
2018-07-03T22:54:47.662Z,99723.00
2018-07-03T22:57:17.620Z,99721.00
2018-07-03T22:59:47.583Z,99720.00
2018-07-03T23:02:17.540Z,99716.00
2018-07-03T23:04:47.455Z,99726.00
2018-07-03T23:07:17.289Z,99726.00
2018-07-03T23:09:47.249Z,99730.00
2018-07-03T23:12:19.582Z,99732.00
2018-07-03T23:14:51.320Z,99733.00
2018-07-03T23:17:22.171Z,99734.00
2018-07-03T23:19:52.156Z,99728.00
2018-07-03T23:22:22.116Z,99732.00
2018-07-03T23:24:52.078Z,99724.00
2018-07-03T23:27:22.040Z,99721.00
2018-07-03T23:29:52.000Z,99724.00
2018-07-03T23:32:21.955Z,99726.00
2018-07-03T23:34:51.933Z,99723.00
2018-07-03T23:37:21.876Z,99719.00
2018-07-03T23:39:51.835Z,99727.00
2018-07-03T23:42:21.796Z,99727.00
2018-07-03T23:44:51.853Z,99729.00
2018-07-03T23:47:38.924Z,99738.00
2018-07-03T23:50:25.932Z,99736.00
2018-07-03T23:53:13.090Z,99743.00
2018-07-03T23:56:00.145Z,99738.00
2018-07-03T23:58:47.454Z,99735.00
